sensor_id;sensor_type;location;lat;lon;timestamp;P1;durP1;ratioP1;P2;durP2;ratioP2
19343;SDS011;9808;52.402;16.678;2023-04-16T00:02:08;138.43;;;61.13;;
19343;SDS011;9808;52.402;16.678;2023-04-16T00:04:35;150.10;;;63.30;;
19343;SDS011;9808;52.402;16.678;2023-04-16T00:07:03;161.70;;;68.17;;
19343;SDS011;9808;52.402;16.678;2023-04-16T00:09:31;139.87;;;61.53;;
19343;SDS011;9808;52.402;16.678;2023-04-16T00:11:59;109.80;;;52.17;;
19343;SDS011;9808;52.402;16.678;2023-04-16T00:14:26;105.33;;;50.93;;
19343;SDS011;9808;52.402;16.678;2023-04-16T00:16:54;104.97;;;50.93;;
19343;SDS011;9808;52.402;16.678;2023-04-16T00:19:21;97.97;;;48.47;;
19343;SDS011;9808;52.402;16.678;2023-04-16T00:21:48;96.47;;;47.37;;
19343;SDS011;9808;52.402;16.678;2023-04-16T00:24:16;98.63;;;45.27;;
19343;SDS011;9808;52.402;16.678;2023-04-16T00:26:44;88.20;;;43.97;;
19343;SDS011;9808;52.402;16.678;2023-04-16T00:29:11;74.57;;;39.33;;
19343;SDS011;9808;52.402;16.678;2023-04-16T00:31:39;71.57;;;35.13;;
19343;SDS011;9808;52.402;16.678;2023-04-16T00:34:06;66.57;;;33.73;;
19343;SDS011;9808;52.402;16.678;2023-04-16T00:36:33;62.33;;;32.77;;
19343;SDS011;9808;52.402;16.678;2023-04-16T00:39:00;62.67;;;33.47;;
19343;SDS011;9808;52.402;16.678;2023-04-16T00:41:28;67.70;;;33.97;;
19343;SDS011;9808;52.402;16.678;2023-04-16T00:43:55;66.77;;;35.50;;
19343;SDS011;9808;52.402;16.678;2023-04-16T00:46:22;68.93;;;35.93;;
19343;SDS011;9808;52.402;16.678;2023-04-16T00:48:52;69.73;;;35.40;;
19343;SDS011;9808;52.402;16.678;2023-04-16T00:51:19;72.23;;;35.00;;
19343;SDS011;9808;52.402;16.678;2023-04-16T00:53:47;63.23;;;32.27;;
19343;SDS011;9808;52.402;16.678;2023-04-16T00:56:14;60.27;;;31.87;;
19343;SDS011;9808;52.402;16.678;2023-04-16T00:58:43;63.03;;;32.10;;
19343;SDS011;9808;52.402;16.678;2023-04-16T01:01:10;52.33;;;26.20;;
19343;SDS011;9808;52.402;16.678;2023-04-16T01:03:41;51.57;;;24.90;;
19343;SDS011;9808;52.402;16.678;2023-04-16T01:06:09;52.60;;;23.83;;
19343;SDS011;9808;52.402;16.678;2023-04-16T01:08:37;42.27;;;22.67;;
19343;SDS011;9808;52.402;16.678;2023-04-16T01:11:04;39.67;;;21.80;;
19343;SDS011;9808;52.402;16.678;2023-04-16T01:13:32;39.53;;;21.40;;
19343;SDS011;9808;52.402;16.678;2023-04-16T01:15:59;36.87;;;20.63;;
19343;SDS011;9808;52.402;16.678;2023-04-16T01:18:27;37.43;;;21.03;;
19343;SDS011;9808;52.402;16.678;2023-04-16T01:20:54;38.60;;;21.80;;
19343;SDS011;9808;52.402;16.678;2023-04-16T01:23:21;42.50;;;22.03;;
19343;SDS011;9808;52.402;16.678;2023-04-16T01:25:48;41.27;;;22.67;;
19343;SDS011;9808;52.402;16.678;2023-04-16T01:28:16;39.37;;;22.57;;
19343;SDS011;9808;52.402;16.678;2023-04-16T01:30:43;40.93;;;22.00;;
19343;SDS011;9808;52.402;16.678;2023-04-16T01:33:11;40.03;;;20.87;;
19343;SDS011;9808;52.402;16.678;2023-04-16T01:35:38;41.17;;;21.13;;
19343;SDS011;9808;52.402;16.678;2023-04-16T01:38:07;41.17;;;22.13;;
19343;SDS011;9808;52.402;16.678;2023-04-16T01:40:34;38.50;;;21.60;;
19343;SDS011;9808;52.402;16.678;2023-04-16T01:43:02;37.33;;;20.20;;
19343;SDS011;9808;52.402;16.678;2023-04-16T01:45:30;39.47;;;20.50;;
19343;SDS011;9808;52.402;16.678;2023-04-16T01:47:57;35.30;;;19.07;;
19343;SDS011;9808;52.402;16.678;2023-04-16T01:50:24;37.13;;;20.23;;
19343;SDS011;9808;52.402;16.678;2023-04-16T01:52:52;37.03;;;19.57;;
19343;SDS011;9808;52.402;16.678;2023-04-16T01:55:19;35.33;;;19.67;;
19343;SDS011;9808;52.402;16.678;2023-04-16T01:57:46;35.60;;;19.37;;
19343;SDS011;9808;52.402;16.678;2023-04-16T02:00:14;31.33;;;19.17;;
19343;SDS011;9808;52.402;16.678;2023-04-16T02:02:41;35.70;;;19.83;;
19343;SDS011;9808;52.402;16.678;2023-04-16T02:05:09;36.30;;;19.47;;
19343;SDS011;9808;52.402;16.678;2023-04-16T02:07:36;36.40;;;20.20;;
19343;SDS011;9808;52.402;16.678;2023-04-16T02:10:04;34.40;;;20.17;;
19343;SDS011;9808;52.402;16.678;2023-04-16T02:12:32;34.93;;;18.83;;
19343;SDS011;9808;52.402;16.678;2023-04-16T02:14:59;34.33;;;18.40;;
19343;SDS011;9808;52.402;16.678;2023-04-16T02:17:26;35.60;;;19.37;;
19343;SDS011;9808;52.402;16.678;2023-04-16T02:19:54;35.83;;;19.53;;
19343;SDS011;9808;52.402;16.678;2023-04-16T02:22:21;33.63;;;19.43;;
19343;SDS011;9808;52.402;16.678;2023-04-16T02:24:48;34.10;;;18.03;;
19343;SDS011;9808;52.402;16.678;2023-04-16T02:27:16;32.53;;;17.93;;
19343;SDS011;9808;52.402;16.678;2023-04-16T02:29:43;37.43;;;18.90;;
19343;SDS011;9808;52.402;16.678;2023-04-16T02:32:10;33.90;;;19.43;;
19343;SDS011;9808;52.402;16.678;2023-04-16T02:34:38;29.20;;;17.27;;
19343;SDS011;9808;52.402;16.678;2023-04-16T02:37:08;33.23;;;18.10;;
19343;SDS011;9808;52.402;16.678;2023-04-16T02:39:36;31.73;;;17.23;;
19343;SDS011;9808;52.402;16.678;2023-04-16T02:42:04;32.27;;;17.27;;
19343;SDS011;9808;52.402;16.678;2023-04-16T02:44:31;36.37;;;18.53;;
19343;SDS011;9808;52.402;16.678;2023-04-16T02:46:59;33.40;;;17.20;;
19343;SDS011;9808;52.402;16.678;2023-04-16T02:49:26;31.80;;;16.73;;
19343;SDS011;9808;52.402;16.678;2023-04-16T02:51:53;29.43;;;16.07;;
19343;SDS011;9808;52.402;16.678;2023-04-16T02:54:24;27.70;;;15.33;;
19343;SDS011;9808;52.402;16.678;2023-04-16T02:56:51;28.40;;;16.60;;
19343;SDS011;9808;52.402;16.678;2023-04-16T02:59:19;31.00;;;16.37;;
19343;SDS011;9808;52.402;16.678;2023-04-16T03:01:46;30.67;;;16.50;;
19343;SDS011;9808;52.402;16.678;2023-04-16T03:04:13;31.77;;;17.53;;
19343;SDS011;9808;52.402;16.678;2023-04-16T03:06:41;29.83;;;16.70;;
19343;SDS011;9808;52.402;16.678;2023-04-16T03:09:08;32.27;;;17.50;;
19343;SDS011;9808;52.402;16.678;2023-04-16T03:11:36;31.80;;;16.80;;
19343;SDS011;9808;52.402;16.678;2023-04-16T03:14:03;32.33;;;17.37;;
19343;SDS011;9808;52.402;16.678;2023-04-16T03:16:30;31.13;;;17.30;;
19343;SDS011;9808;52.402;16.678;2023-04-16T03:18:57;29.43;;;16.47;;
19343;SDS011;9808;52.402;16.678;2023-04-16T03:21:25;32.50;;;17.57;;
19343;SDS011;9808;52.402;16.678;2023-04-16T03:23:53;35.87;;;17.20;;
19343;SDS011;9808;52.402;16.678;2023-04-16T03:26:23;33.50;;;17.83;;
19343;SDS011;9808;52.402;16.678;2023-04-16T03:28:50;29.93;;;16.63;;
19343;SDS011;9808;52.402;16.678;2023-04-16T03:31:18;30.73;;;16.97;;
19343;SDS011;9808;52.402;16.678;2023-04-16T03:33:45;34.33;;;18.37;;
19343;SDS011;9808;52.402;16.678;2023-04-16T03:36:13;36.20;;;18.57;;
19343;SDS011;9808;52.402;16.678;2023-04-16T03:38:40;34.70;;;17.60;;
19343;SDS011;9808;52.402;16.678;2023-04-16T03:41:07;35.47;;;17.50;;
19343;SDS011;9808;52.402;16.678;2023-04-16T03:43:34;33.73;;;17.80;;
19343;SDS011;9808;52.402;16.678;2023-04-16T03:46:02;31.20;;;17.10;;
19343;SDS011;9808;52.402;16.678;2023-04-16T03:48:29;35.47;;;18.93;;
19343;SDS011;9808;52.402;16.678;2023-04-16T03:50:56;29.40;;;17.80;;
19343;SDS011;9808;52.402;16.678;2023-04-16T03:53:27;33.97;;;18.53;;
19343;SDS011;9808;52.402;16.678;2023-04-16T03:56:06;33.23;;;18.03;;
19343;SDS011;9808;52.402;16.678;2023-04-16T03:58:33;31.83;;;17.20;;
19343;SDS011;9808;52.402;16.678;2023-04-16T04:01:00;31.67;;;17.33;;
19343;SDS011;9808;52.402;16.678;2023-04-16T04:03:28;29.70;;;16.67;;
19343;SDS011;9808;52.402;16.678;2023-04-16T04:05:55;32.23;;;18.13;;
19343;SDS011;9808;52.402;16.678;2023-04-16T04:08:22;31.10;;;17.37;;
19343;SDS011;9808;52.402;16.678;2023-04-16T04:10:50;31.07;;;16.93;;
19343;SDS011;9808;52.402;16.678;2023-04-16T04:13:17;31.47;;;17.47;;
19343;SDS011;9808;52.402;16.678;2023-04-16T04:15:45;29.50;;;16.30;;
19343;SDS011;9808;52.402;16.678;2023-04-16T04:18:12;33.30;;;17.23;;
19343;SDS011;9808;52.402;16.678;2023-04-16T04:20:39;33.13;;;18.10;;
19343;SDS011;9808;52.402;16.678;2023-04-16T04:23:07;33.67;;;19.07;;
19343;SDS011;9808;52.402;16.678;2023-04-16T04:25:34;35.53;;;18.93;;
19343;SDS011;9808;52.402;16.678;2023-04-16T04:28:01;33.63;;;18.83;;
19343;SDS011;9808;52.402;16.678;2023-04-16T04:30:29;34.67;;;17.70;;
19343;SDS011;9808;52.402;16.678;2023-04-16T04:32:56;36.37;;;19.23;;
19343;SDS011;9808;52.402;16.678;2023-04-16T04:35:23;35.77;;;17.87;;
19343;SDS011;9808;52.402;16.678;2023-04-16T04:37:51;35.73;;;18.60;;
19343;SDS011;9808;52.402;16.678;2023-04-16T04:40:18;33.93;;;17.40;;
19343;SDS011;9808;52.402;16.678;2023-04-16T04:42:45;34.70;;;17.70;;
19343;SDS011;9808;52.402;16.678;2023-04-16T04:45:12;35.53;;;18.47;;
19343;SDS011;9808;52.402;16.678;2023-04-16T04:47:40;35.43;;;19.03;;
19343;SDS011;9808;52.402;16.678;2023-04-16T04:50:07;33.57;;;18.07;;
19343;SDS011;9808;52.402;16.678;2023-04-16T04:52:35;34.60;;;18.57;;
19343;SDS011;9808;52.402;16.678;2023-04-16T04:55:02;39.77;;;19.93;;
19343;SDS011;9808;52.402;16.678;2023-04-16T04:57:29;41.43;;;20.80;;
19343;SDS011;9808;52.402;16.678;2023-04-16T04:59:56;36.70;;;18.73;;
19343;SDS011;9808;52.402;16.678;2023-04-16T05:02:24;36.97;;;19.17;;
19343;SDS011;9808;52.402;16.678;2023-04-16T05:04:51;36.37;;;19.47;;
19343;SDS011;9808;52.402;16.678;2023-04-16T05:07:18;35.40;;;20.23;;
19343;SDS011;9808;52.402;16.678;2023-04-16T05:09:46;36.30;;;19.40;;
19343;SDS011;9808;52.402;16.678;2023-04-16T05:12:13;39.63;;;19.73;;
19343;SDS011;9808;52.402;16.678;2023-04-16T05:14:40;35.27;;;19.90;;
19343;SDS011;9808;52.402;16.678;2023-04-16T05:17:08;36.67;;;19.90;;
19343;SDS011;9808;52.402;16.678;2023-04-16T05:19:36;38.00;;;19.93;;
19343;SDS011;9808;52.402;16.678;2023-04-16T05:22:03;37.27;;;20.80;;
19343;SDS011;9808;52.402;16.678;2023-04-16T05:24:30;43.63;;;21.77;;
19343;SDS011;9808;52.402;16.678;2023-04-16T05:26:58;42.57;;;22.83;;
19343;SDS011;9808;52.402;16.678;2023-04-16T05:29:25;43.47;;;23.20;;
19343;SDS011;9808;52.402;16.678;2023-04-16T05:31:52;43.60;;;23.57;;
19343;SDS011;9808;52.402;16.678;2023-04-16T05:34:19;45.17;;;23.77;;
19343;SDS011;9808;52.402;16.678;2023-04-16T05:36:47;42.57;;;23.50;;
19343;SDS011;9808;52.402;16.678;2023-04-16T05:39:15;41.97;;;22.37;;
19343;SDS011;9808;52.402;16.678;2023-04-16T05:41:43;45.67;;;23.47;;
19343;SDS011;9808;52.402;16.678;2023-04-16T05:44:11;45.67;;;22.83;;
19343;SDS011;9808;52.402;16.678;2023-04-16T05:46:38;43.37;;;22.70;;
19343;SDS011;9808;52.402;16.678;2023-04-16T05:49:05;41.60;;;22.40;;
19343;SDS011;9808;52.402;16.678;2023-04-16T05:51:33;39.17;;;21.87;;
19343;SDS011;9808;52.402;16.678;2023-04-16T05:54:01;34.40;;;18.70;;
19343;SDS011;9808;52.402;16.678;2023-04-16T05:56:28;33.17;;;17.60;;
19343;SDS011;9808;52.402;16.678;2023-04-16T05:58:56;31.10;;;17.27;;
19343;SDS011;9808;52.402;16.678;2023-04-16T06:01:23;30.30;;;16.97;;
19343;SDS011;9808;52.402;16.678;2023-04-16T06:03:51;32.00;;;16.60;;
19343;SDS011;9808;52.402;16.678;2023-04-16T06:06:18;31.23;;;16.50;;
19343;SDS011;9808;52.402;16.678;2023-04-16T06:08:45;30.20;;;15.80;;
19343;SDS011;9808;52.402;16.678;2023-04-16T06:11:13;29.53;;;15.47;;
19343;SDS011;9808;52.402;16.678;2023-04-16T06:13:40;29.00;;;16.27;;
19343;SDS011;9808;52.402;16.678;2023-04-16T06:16:08;31.30;;;16.47;;
19343;SDS011;9808;52.402;16.678;2023-04-16T06:18:35;27.10;;;14.70;;
19343;SDS011;9808;52.402;16.678;2023-04-16T06:21:02;26.40;;;14.87;;
19343;SDS011;9808;52.402;16.678;2023-04-16T06:23:30;28.40;;;15.37;;
19343;SDS011;9808;52.402;16.678;2023-04-16T06:25:57;25.87;;;13.63;;
19343;SDS011;9808;52.402;16.678;2023-04-16T06:28:24;26.40;;;14.00;;
19343;SDS011;9808;52.402;16.678;2023-04-16T06:30:51;25.23;;;13.93;;
19343;SDS011;9808;52.402;16.678;2023-04-16T06:33:19;24.53;;;13.67;;
19343;SDS011;9808;52.402;16.678;2023-04-16T06:35:46;22.93;;;12.70;;
19343;SDS011;9808;52.402;16.678;2023-04-16T06:38:14;25.40;;;13.70;;
19343;SDS011;9808;52.402;16.678;2023-04-16T06:40:41;24.57;;;13.97;;
19343;SDS011;9808;52.402;16.678;2023-04-16T06:43:08;20.90;;;12.00;;
19343;SDS011;9808;52.402;16.678;2023-04-16T06:45:35;19.43;;;11.30;;
19343;SDS011;9808;52.402;16.678;2023-04-16T06:48:03;24.70;;;12.37;;
19343;SDS011;9808;52.402;16.678;2023-04-16T06:50:30;19.83;;;10.93;;
19343;SDS011;9808;52.402;16.678;2023-04-16T06:52:57;21.57;;;12.17;;
19343;SDS011;9808;52.402;16.678;2023-04-16T06:55:25;19.60;;;10.83;;
19343;SDS011;9808;52.402;16.678;2023-04-16T06:57:52;24.37;;;10.77;;
19343;SDS011;9808;52.402;16.678;2023-04-16T07:00:19;19.57;;;10.90;;
19343;SDS011;9808;52.402;16.678;2023-04-16T07:02:47;19.13;;;10.90;;
19343;SDS011;9808;52.402;16.678;2023-04-16T07:05:14;17.07;;;10.37;;
19343;SDS011;9808;52.402;16.678;2023-04-16T07:07:41;21.70;;;11.37;;
19343;SDS011;9808;52.402;16.678;2023-04-16T07:10:09;19.63;;;10.70;;
19343;SDS011;9808;52.402;16.678;2023-04-16T07:12:36;19.33;;;11.00;;
19343;SDS011;9808;52.402;16.678;2023-04-16T07:15:03;16.73;;;9.77;;
19343;SDS011;9808;52.402;16.678;2023-04-16T07:17:31;18.07;;;9.23;;
19343;SDS011;9808;52.402;16.678;2023-04-16T07:19:58;16.57;;;9.57;;
19343;SDS011;9808;52.402;16.678;2023-04-16T07:22:25;14.73;;;8.70;;
19343;SDS011;9808;52.402;16.678;2023-04-16T07:24:52;18.17;;;9.60;;
19343;SDS011;9808;52.402;16.678;2023-04-16T07:27:20;15.37;;;8.80;;
19343;SDS011;9808;52.402;16.678;2023-04-16T07:29:47;15.87;;;9.30;;
19343;SDS011;9808;52.402;16.678;2023-04-16T07:32:15;16.07;;;9.03;;
19343;SDS011;9808;52.402;16.678;2023-04-16T07:34:43;17.07;;;8.93;;
19343;SDS011;9808;52.402;16.678;2023-04-16T07:37:10;16.20;;;9.27;;
19343;SDS011;9808;52.402;16.678;2023-04-16T07:39:38;17.50;;;10.23;;
19343;SDS011;9808;52.402;16.678;2023-04-16T07:42:05;18.63;;;9.87;;
19343;SDS011;9808;52.402;16.678;2023-04-16T07:44:32;15.50;;;9.43;;
19343;SDS011;9808;52.402;16.678;2023-04-16T07:46:59;16.87;;;9.50;;
19343;SDS011;9808;52.402;16.678;2023-04-16T07:49:30;16.50;;;9.37;;
19343;SDS011;9808;52.402;16.678;2023-04-16T07:51:57;15.73;;;9.10;;
19343;SDS011;9808;52.402;16.678;2023-04-16T07:54:25;16.83;;;9.17;;
19343;SDS011;9808;52.402;16.678;2023-04-16T07:56:54;14.73;;;8.67;;
19343;SDS011;9808;52.402;16.678;2023-04-16T07:59:21;16.87;;;8.10;;
19343;SDS011;9808;52.402;16.678;2023-04-16T08:01:51;12.50;;;7.32;;
19343;SDS011;9808;52.402;16.678;2023-04-16T08:04:19;14.65;;;7.35;;
19343;SDS011;9808;52.402;16.678;2023-04-16T08:06:51;11.23;;;7.00;;
19343;SDS011;9808;52.402;16.678;2023-04-16T08:09:19;11.77;;;7.33;;
19343;SDS011;9808;52.402;16.678;2023-04-16T08:11:47;11.43;;;7.07;;
19343;SDS011;9808;52.402;16.678;2023-04-16T08:14:15;10.27;;;6.33;;
19343;SDS011;9808;52.402;16.678;2023-04-16T08:16:43;12.07;;;7.13;;
19343;SDS011;9808;52.402;16.678;2023-04-16T08:19:10;13.20;;;7.27;;
19343;SDS011;9808;52.402;16.678;2023-04-16T08:21:38;11.67;;;7.37;;
19343;SDS011;9808;52.402;16.678;2023-04-16T08:24:05;12.70;;;7.68;;
19343;SDS011;9808;52.402;16.678;2023-04-16T08:26:33;13.45;;;7.22;;
19343;SDS011;9808;52.402;16.678;2023-04-16T08:29:00;12.63;;;7.60;;
19343;SDS011;9808;52.402;16.678;2023-04-16T08:31:27;13.75;;;8.35;;
19343;SDS011;9808;52.402;16.678;2023-04-16T08:33:55;14.95;;;7.80;;
19343;SDS011;9808;52.402;16.678;2023-04-16T08:36:22;14.95;;;8.45;;
19343;SDS011;9808;52.402;16.678;2023-04-16T08:38:49;11.50;;;6.63;;
19343;SDS011;9808;52.402;16.678;2023-04-16T08:41:17;11.30;;;6.78;;
19343;SDS011;9808;52.402;16.678;2023-04-16T08:43:46;7.93;;;4.30;;
19343;SDS011;9808;52.402;16.678;2023-04-16T08:46:15;7.78;;;3.78;;
19343;SDS011;9808;52.402;16.678;2023-04-16T08:48:43;8.98;;;4.03;;
19343;SDS011;9808;52.402;16.678;2023-04-16T08:51:12;9.55;;;5.20;;
19343;SDS011;9808;52.402;16.678;2023-04-16T08:53:53;9.05;;;4.97;;
19343;SDS011;9808;52.402;16.678;2023-04-16T08:56:23;8.52;;;5.07;;
19343;SDS011;9808;52.402;16.678;2023-04-16T08:58:51;8.57;;;4.97;;
19343;SDS011;9808;52.402;16.678;2023-04-16T09:01:20;8.82;;;4.57;;
19343;SDS011;9808;52.402;16.678;2023-04-16T09:03:47;8.07;;;4.60;;
19343;SDS011;9808;52.402;16.678;2023-04-16T09:06:15;7.95;;;4.70;;
19343;SDS011;9808;52.402;16.678;2023-04-16T09:08:43;5.88;;;3.17;;
19343;SDS011;9808;52.402;16.678;2023-04-16T09:11:16;5.40;;;2.78;;
19343;SDS011;9808;52.402;16.678;2023-04-16T09:13:44;7.38;;;3.50;;
19343;SDS011;9808;52.402;16.678;2023-04-16T09:16:12;6.97;;;3.22;;
19343;SDS011;9808;52.402;16.678;2023-04-16T09:18:40;5.78;;;3.38;;
19343;SDS011;9808;52.402;16.678;2023-04-16T09:21:10;6.00;;;3.30;;
19343;SDS011;9808;52.402;16.678;2023-04-16T09:23:38;5.97;;;3.13;;
19343;SDS011;9808;52.402;16.678;2023-04-16T09:26:06;6.28;;;3.17;;
19343;SDS011;9808;52.402;16.678;2023-04-16T09:28:43;7.50;;;3.75;;
19343;SDS011;9808;52.402;16.678;2023-04-16T09:31:17;6.25;;;3.38;;
19343;SDS011;9808;52.402;16.678;2023-04-16T09:34:06;7.00;;;3.78;;
19343;SDS011;9808;52.402;16.678;2023-04-16T09:36:32;5.90;;;3.45;;
19343;SDS011;9808;52.402;16.678;2023-04-16T09:38:59;5.75;;;3.45;;
19343;SDS011;9808;52.402;16.678;2023-04-16T09:41:28;7.43;;;3.50;;
19343;SDS011;9808;52.402;16.678;2023-04-16T09:43:56;8.48;;;4.20;;
19343;SDS011;9808;52.402;16.678;2023-04-16T09:46:24;6.70;;;3.83;;
19343;SDS011;9808;52.402;16.678;2023-04-16T09:48:55;6.10;;;3.65;;
19343;SDS011;9808;52.402;16.678;2023-04-16T09:51:23;7.13;;;3.28;;
19343;SDS011;9808;52.402;16.678;2023-04-16T09:53:52;8.75;;;4.03;;
19343;SDS011;9808;52.402;16.678;2023-04-16T09:56:22;5.80;;;3.20;;
19343;SDS011;9808;52.402;16.678;2023-04-16T09:58:54;6.40;;;3.30;;
19343;SDS011;9808;52.402;16.678;2023-04-16T10:01:22;9.82;;;3.85;;
19343;SDS011;9808;52.402;16.678;2023-04-16T10:15:11;6.25;;;4.07;;
19343;SDS011;9808;52.402;16.678;2023-04-16T10:17:38;10.25;;;3.58;;
19343;SDS011;9808;52.402;16.678;2023-04-16T10:20:06;7.75;;;3.80;;
19343;SDS011;9808;52.402;16.678;2023-04-16T10:22:33;8.90;;;4.05;;
19343;SDS011;9808;52.402;16.678;2023-04-16T10:25:00;6.80;;;3.60;;
19343;SDS011;9808;52.402;16.678;2023-04-16T10:27:29;5.97;;;3.45;;
19343;SDS011;9808;52.402;16.678;2023-04-16T10:29:56;6.30;;;3.47;;
19343;SDS011;9808;52.402;16.678;2023-04-16T10:32:23;6.70;;;3.40;;
19343;SDS011;9808;52.402;16.678;2023-04-16T10:34:54;7.38;;;3.85;;
19343;SDS011;9808;52.402;16.678;2023-04-16T10:37:28;6.90;;;3.60;;
19343;SDS011;9808;52.402;16.678;2023-04-16T10:39:59;6.07;;;3.63;;
19343;SDS011;9808;52.402;16.678;2023-04-16T10:42:26;7.35;;;3.90;;
19343;SDS011;9808;52.402;16.678;2023-04-16T10:44:54;7.55;;;3.55;;
19343;SDS011;9808;52.402;16.678;2023-04-16T10:47:25;7.68;;;4.20;;
19343;SDS011;9808;52.402;16.678;2023-04-16T10:49:55;8.10;;;4.40;;
19343;SDS011;9808;52.402;16.678;2023-04-16T10:52:23;6.68;;;3.80;;
19343;SDS011;9808;52.402;16.678;2023-04-16T10:54:51;8.52;;;4.60;;
19343;SDS011;9808;52.402;16.678;2023-04-16T10:57:20;7.05;;;3.95;;
19343;SDS011;9808;52.402;16.678;2023-04-16T10:59:48;8.50;;;4.47;;
19343;SDS011;9808;52.402;16.678;2023-04-16T11:02:16;9.77;;;5.35;;
19343;SDS011;9808;52.402;16.678;2023-04-16T11:04:44;7.97;;;4.65;;
19343;SDS011;9808;52.402;16.678;2023-04-16T11:12:13;9.30;;;4.90;;
19343;SDS011;9808;52.402;16.678;2023-04-16T11:14:41;10.27;;;5.38;;
19343;SDS011;9808;52.402;16.678;2023-04-16T11:17:09;8.52;;;4.15;;
19343;SDS011;9808;52.402;16.678;2023-04-16T11:19:36;9.00;;;5.30;;
19343;SDS011;9808;52.402;16.678;2023-04-16T11:22:04;8.05;;;4.68;;
19343;SDS011;9808;52.402;16.678;2023-04-16T11:24:31;8.48;;;5.40;;
19343;SDS011;9808;52.402;16.678;2023-04-16T11:26:59;8.65;;;5.07;;
19343;SDS011;9808;52.402;16.678;2023-04-16T11:29:26;8.50;;;4.57;;
19343;SDS011;9808;52.402;16.678;2023-04-16T11:31:54;8.25;;;5.15;;
19343;SDS011;9808;52.402;16.678;2023-04-16T11:34:21;9.10;;;5.30;;
19343;SDS011;9808;52.402;16.678;2023-04-16T11:36:49;12.02;;;6.22;;
19343;SDS011;9808;52.402;16.678;2023-04-16T11:39:17;9.52;;;5.35;;
19343;SDS011;9808;52.402;16.678;2023-04-16T11:41:44;7.85;;;4.70;;
19343;SDS011;9808;52.402;16.678;2023-04-16T11:44:16;9.00;;;5.13;;
19343;SDS011;9808;52.402;16.678;2023-04-16T11:46:43;7.78;;;4.57;;
19343;SDS011;9808;52.402;16.678;2023-04-16T11:49:14;7.10;;;4.15;;
19343;SDS011;9808;52.402;16.678;2023-04-16T11:51:44;8.02;;;4.65;;
19343;SDS011;9808;52.402;16.678;2023-04-16T11:54:18;6.95;;;4.38;;
19343;SDS011;9808;52.402;16.678;2023-04-16T11:56:46;7.35;;;4.13;;
19343;SDS011;9808;52.402;16.678;2023-04-16T12:01:47;6.80;;;3.83;;
19343;SDS011;9808;52.402;16.678;2023-04-16T12:04:16;12.40;;;4.10;;
19343;SDS011;9808;52.402;16.678;2023-04-16T12:09:31;8.05;;;4.05;;
19343;SDS011;9808;52.402;16.678;2023-04-16T12:12:03;6.43;;;3.30;;
19343;SDS011;9808;52.402;16.678;2023-04-16T12:14:30;6.25;;;3.25;;
19343;SDS011;9808;52.402;16.678;2023-04-16T12:19:48;7.07;;;3.55;;
19343;SDS011;9808;52.402;16.678;2023-04-16T12:22:15;6.30;;;3.45;;
19343;SDS011;9808;52.402;16.678;2023-04-16T12:24:42;6.13;;;3.50;;
19343;SDS011;9808;52.402;16.678;2023-04-16T12:27:09;6.55;;;3.90;;
19343;SDS011;9808;52.402;16.678;2023-04-16T12:29:37;6.13;;;3.80;;
19343;SDS011;9808;52.402;16.678;2023-04-16T12:32:04;6.05;;;3.50;;
19343;SDS011;9808;52.402;16.678;2023-04-16T12:34:49;5.72;;;3.10;;
19343;SDS011;9808;52.402;16.678;2023-04-16T12:37:17;5.72;;;3.28;;
19343;SDS011;9808;52.402;16.678;2023-04-16T12:39:44;5.65;;;2.75;;
19343;SDS011;9808;52.402;16.678;2023-04-16T12:42:13;8.80;;;3.40;;
19343;SDS011;9808;52.402;16.678;2023-04-16T12:44:40;5.93;;;3.13;;
19343;SDS011;9808;52.402;16.678;2023-04-16T12:47:08;8.50;;;3.58;;
19343;SDS011;9808;52.402;16.678;2023-04-16T12:49:35;8.02;;;3.00;;
19343;SDS011;9808;52.402;16.678;2023-04-16T12:52:03;6.15;;;3.72;;
19343;SDS011;9808;52.402;16.678;2023-04-16T12:54:31;8.15;;;3.90;;
19343;SDS011;9808;52.402;16.678;2023-04-16T12:56:58;9.50;;;4.72;;
19343;SDS011;9808;52.402;16.678;2023-04-16T12:59:26;6.07;;;3.70;;
19343;SDS011;9808;52.402;16.678;2023-04-16T13:01:53;6.57;;;3.90;;
19343;SDS011;9808;52.402;16.678;2023-04-16T13:04:20;7.40;;;3.95;;
19343;SDS011;9808;52.402;16.678;2023-04-16T13:06:50;6.85;;;3.88;;
19343;SDS011;9808;52.402;16.678;2023-04-16T13:09:18;7.90;;;4.25;;
19343;SDS011;9808;52.402;16.678;2023-04-16T13:11:45;7.32;;;4.47;;
19343;SDS011;9808;52.402;16.678;2023-04-16T13:14:12;6.88;;;3.92;;
19343;SDS011;9808;52.402;16.678;2023-04-16T13:16:40;7.20;;;4.00;;
19343;SDS011;9808;52.402;16.678;2023-04-16T13:19:07;7.55;;;4.15;;
19343;SDS011;9808;52.402;16.678;2023-04-16T13:21:34;9.57;;;4.20;;
19343;SDS011;9808;52.402;16.678;2023-04-16T13:24:02;7.63;;;4.18;;
19343;SDS011;9808;52.402;16.678;2023-04-16T13:26:29;9.38;;;4.93;;
19343;SDS011;9808;52.402;16.678;2023-04-16T13:28:56;7.97;;;4.72;;
19343;SDS011;9808;52.402;16.678;2023-04-16T13:31:24;7.85;;;3.80;;
19343;SDS011;9808;52.402;16.678;2023-04-16T13:33:51;10.20;;;4.20;;
19343;SDS011;9808;52.402;16.678;2023-04-16T13:36:19;6.73;;;4.00;;
19343;SDS011;9808;52.402;16.678;2023-04-16T13:38:46;8.00;;;3.97;;
19343;SDS011;9808;52.402;16.678;2023-04-16T13:41:13;6.72;;;3.70;;
19343;SDS011;9808;52.402;16.678;2023-04-16T13:43:40;6.27;;;3.30;;
19343;SDS011;9808;52.402;16.678;2023-04-16T13:46:07;9.27;;;3.70;;
19343;SDS011;9808;52.402;16.678;2023-04-16T13:48:35;6.80;;;3.73;;
19343;SDS011;9808;52.402;16.678;2023-04-16T13:51:02;6.95;;;3.28;;
19343;SDS011;9808;52.402;16.678;2023-04-16T13:53:29;6.93;;;3.33;;
19343;SDS011;9808;52.402;16.678;2023-04-16T13:55:56;7.05;;;3.42;;
19343;SDS011;9808;52.402;16.678;2023-04-16T13:58:24;9.85;;;3.75;;
19343;SDS011;9808;52.402;16.678;2023-04-16T14:00:51;7.05;;;3.00;;
19343;SDS011;9808;52.402;16.678;2023-04-16T14:03:19;6.97;;;2.88;;
19343;SDS011;9808;52.402;16.678;2023-04-16T14:05:47;5.85;;;3.08;;
19343;SDS011;9808;52.402;16.678;2023-04-16T14:08:14;6.88;;;3.83;;
19343;SDS011;9808;52.402;16.678;2023-04-16T14:10:43;7.47;;;4.20;;
19343;SDS011;9808;52.402;16.678;2023-04-16T14:13:10;10.50;;;4.60;;
19343;SDS011;9808;52.402;16.678;2023-04-16T14:15:38;9.60;;;5.10;;
19343;SDS011;9808;52.402;16.678;2023-04-16T14:18:06;12.00;;;7.15;;
19343;SDS011;9808;52.402;16.678;2023-04-16T14:20:33;14.52;;;9.07;;
19343;SDS011;9808;52.402;16.678;2023-04-16T14:23:00;14.90;;;8.27;;
19343;SDS011;9808;52.402;16.678;2023-04-16T14:25:28;15.50;;;9.88;;
19343;SDS011;9808;52.402;16.678;2023-04-16T14:27:57;17.07;;;10.70;;
19343;SDS011;9808;52.402;16.678;2023-04-16T14:30:24;18.63;;;11.13;;
19343;SDS011;9808;52.402;16.678;2023-04-16T14:32:51;18.52;;;10.43;;
19343;SDS011;9808;52.402;16.678;2023-04-16T14:35:19;17.90;;;11.02;;
19343;SDS011;9808;52.402;16.678;2023-04-16T14:37:46;21.40;;;11.20;;
19343;SDS011;9808;52.402;16.678;2023-04-16T14:40:14;17.85;;;10.73;;
19343;SDS011;9808;52.402;16.678;2023-04-16T14:42:41;19.20;;;10.38;;
19343;SDS011;9808;52.402;16.678;2023-04-16T14:45:08;17.48;;;10.90;;
19343;SDS011;9808;52.402;16.678;2023-04-16T14:47:36;20.60;;;12.33;;
19343;SDS011;9808;52.402;16.678;2023-04-16T14:50:11;20.13;;;12.00;;
19343;SDS011;9808;52.402;16.678;2023-04-16T14:52:38;21.67;;;12.32;;
19343;SDS011;9808;52.402;16.678;2023-04-16T14:55:06;21.02;;;12.57;;
19343;SDS011;9808;52.402;16.678;2023-04-16T14:57:33;21.13;;;12.70;;
19343;SDS011;9808;52.402;16.678;2023-04-16T15:00:01;21.65;;;12.63;;